Time;durP1;ratioP1;P1;durP2;ratioP2;P2;SDS_P1;SDS_P2;PMS_P1;PMS_P2;Temp;Humidity;BMP_temperature;BMP_pressure;BME280_temperature;BME280_humidity;BME280_pressure;Samples;Min_cycle;Max_cycle;Signal;HPM_P1;HPM_P2
2023/04/14 00:02:25;;;;;;;14.83;8.47;;;9.60;99.90;;;;;;5050538;28;20195;-77
2023/04/14 00:04:52;;;;;;;17.90;10.10;;;9.50;99.90;;;;;;5050669;28;20531;-77
2023/04/14 00:07:20;;;;;;;14.57;8.97;;;9.50;99.90;;;;;;5050178;28;20210;-77
2023/04/14 00:09:47;;;;;;;14.87;9.37;;;9.50;99.90;;;;;;5050286;28;20225;-76
2023/04/14 00:12:14;;;;;;;14.23;8.90;;;9.40;99.90;;;;;;5051769;28;20209;-77
2023/04/14 00:14:42;;;;;;;16.43;9.60;;;9.40;99.90;;;;;;5050378;28;20206;-78
2023/04/14 00:17:09;;;;;;;19.07;10.73;;;9.40;99.90;;;;;;5050243;28;20191;-76
2023/04/14 00:19:36;;;;;;;19.00;9.83;;;9.40;99.90;;;;;;5051304;28;20187;-77
2023/04/14 00:22:03;;;;;;;14.20;9.53;;;9.40;99.90;;;;;;5050584;28;20522;-78
2023/04/14 00:24:30;;;;;;;14.70;9.50;;;9.40;99.90;;;;;;5049947;28;20198;-79
2023/04/14 00:26:57;;;;;;;16.87;9.57;;;9.40;99.90;;;;;;5050120;28;20219;-78
2023/04/14 00:29:24;;;;;;;15.07;9.17;;;9.30;99.90;;;;;;5049871;28;20234;-79
2023/04/14 00:31:51;;;;;;;14.90;9.60;;;9.30;99.90;;;;;;5050586;28;20191;-78
2023/04/14 00:34:17;;;;;;;16.57;9.40;;;9.30;99.90;;;;;;5050298;28;20198;-79
2023/04/14 00:36:44;;;;;;;13.77;9.00;;;9.20;99.90;;;;;;5050335;28;20205;-79
2023/04/14 00:39:11;;;;;;;16.57;10.17;;;9.20;99.90;;;;;;5050119;28;20191;-78
2023/04/14 00:41:38;;;;;;;13.40;9.03;;;9.20;99.90;;;;;;5051352;28;20555;-78
2023/04/14 00:44:05;;;;;;;14.37;9.27;;;9.20;99.90;;;;;;5050471;28;20209;-78
2023/04/14 00:46:32;;;;;;;13.43;9.00;;;9.10;99.90;;;;;;5049889;28;20202;-78
2023/04/14 00:49:00;;;;;;;14.20;9.23;;;9.10;99.90;;;;;;5050084;28;20199;-78
2023/04/14 00:51:27;;;;;;;15.73;9.63;;;9.00;99.90;;;;;;5053911;28;20218;-77
2023/04/14 00:53:55;;;;;;;14.77;9.60;;;9.00;99.90;;;;;;5055843;28;20194;-78
2023/04/14 00:56:25;;;;;;;12.83;9.00;;;9.10;99.90;;;;;;5054084;28;20240;-78
2023/04/14 00:58:52;;;;;;;14.63;9.27;;;9.00;99.90;;;;;;5054023;28;20194;-79
2023/04/14 01:01:19;;;;;;;12.97;9.17;;;8.90;99.90;;;;;;5054345;28;20202;-79
2023/04/14 01:03:47;;;;;;;13.27;9.20;;;9.00;99.90;;;;;;5055109;28;20272;-80
2023/04/14 01:06:14;;;;;;;14.10;9.40;;;9.00;99.90;;;;;;5054366;28;20210;-79
2023/04/14 01:08:41;;;;;;;15.23;9.40;;;9.00;99.90;;;;;;5053977;28;20209;-79
2023/04/14 01:11:17;;;;;;;14.17;9.03;;;9.00;99.90;;;;;;5054138;28;20223;-79
2023/04/14 01:13:50;;;;;;;13.80;9.00;;;9.00;99.90;;;;;;5053754;28;20324;-79
2023/04/14 01:16:32;;;;;;;14.63;8.77;;;9.00;99.90;;;;;;5055330;28;20195;-78
2023/04/14 01:19:39;;;;;;;15.77;9.57;;;9.00;99.90;;;;;;5053629;28;20210;-79
2023/04/14 01:22:08;;;;;;;12.67;9.00;;;9.00;99.90;;;;;;5054897;28;20195;-79
2023/04/14 01:25:21;;;;;;;14.83;9.43;;;8.90;99.90;;;;;;5054439;28;20197;-78
2023/04/14 01:28:11;;;;;;;13.03;8.43;;;8.90;99.90;;;;;;5030522;28;20234;-78
2023/04/14 01:30:58;;;;;;;14.53;8.97;;;8.90;99.90;;;;;;5054563;28;20214;-78
2023/04/14 01:33:28;;;;;;;15.77;9.37;;;8.90;99.90;;;;;;5053643;28;20297;-78
2023/04/14 01:35:57;;;;;;;14.20;9.37;;;9.00;99.90;;;;;;5053362;28;20195;-78
2023/04/14 01:38:28;;;;;;;12.40;8.60;;;8.80;99.90;;;;;;5052961;28;20272;-78
2023/04/14 01:41:05;;;;;;;17.30;9.90;;;8.80;99.90;;;;;;5053519;28;20675;-78
2023/04/14 01:43:38;;;;;;;28.80;10.30;;;8.80;99.90;;;;;;5053223;28;20224;-78
2023/04/14 01:46:12;;;;;;;14.83;8.70;;;8.80;99.90;;;;;;5054303;28;20202;-79
2023/04/14 01:48:44;;;;;;;14.60;9.23;;;8.80;99.90;;;;;;5053159;28;20233;-78
2023/04/14 01:51:17;;;;;;;14.13;8.83;;;8.80;99.90;;;;;;5054260;28;20284;-78
2023/04/14 01:53:46;;;;;;;15.77;9.30;;;8.80;99.90;;;;;;5053070;28;20720;-78
2023/04/14 01:56:15;;;;;;;15.30;9.67;;;8.80;99.90;;;;;;5053942;28;20195;-79
2023/04/14 01:58:44;;;;;;;13.00;8.83;;;8.80;99.90;;;;;;5052678;28;20290;-79
2023/04/14 02:01:12;;;;;;;13.83;9.17;;;8.70;99.90;;;;;;5054219;28;20234;-80
2023/04/14 02:03:39;;;;;;;12.37;8.90;;;8.70;99.90;;;;;;5052870;28;20210;-79
2023/04/14 02:06:09;;;;;;;13.83;9.20;;;8.70;99.90;;;;;;5052873;28;20646;-79
2023/04/14 02:08:40;;;;;;;19.40;8.87;;;8.60;99.90;;;;;;5052497;28;20206;-78
2023/04/14 02:11:13;;;;;;;19.97;9.63;;;8.60;99.90;;;;;;5054217;28;20233;-79
2023/04/14 02:13:42;;;;;;;13.67;9.07;;;8.60;99.90;;;;;;5054163;28;20290;-77
2023/04/14 02:16:10;;;;;;;16.40;9.60;;;8.60;99.90;;;;;;5052513;28;20253;-79
2023/04/14 02:18:39;;;;;;;13.83;9.10;;;8.60;99.90;;;;;;5053925;28;20202;-79
2023/04/14 02:21:08;;;;;;;14.73;8.90;;;8.50;99.90;;;;;;5053696;28;20570;-79
2023/04/14 02:23:35;;;;;;;15.07;9.67;;;8.50;99.90;;;;;;5053486;28;20217;-78
2023/04/14 02:26:11;;;;;;;16.23;9.70;;;8.40;99.90;;;;;;5053521;28;20199;-79
2023/04/14 02:28:47;;;;;;;14.27;9.33;;;8.40;99.90;;;;;;5051771;28;20222;-77
2023/04/14 02:31:22;;;;;;;13.73;9.33;;;8.40;99.90;;;;;;5052204;28;20239;-79
2023/04/14 02:33:53;;;;;;;12.90;9.13;;;8.30;99.90;;;;;;5052113;28;20285;-78
2023/04/14 02:36:33;;;;;;;15.33;9.50;;;8.40;99.90;;;;;;5053506;28;20550;-78
2023/04/14 02:39:09;;;;;;;13.83;8.70;;;8.30;99.90;;;;;;5035785;28;20205;-78
2023/04/14 02:41:40;;;;;;;14.37;9.10;;;8.30;99.90;;;;;;5053563;28;20241;-78
2023/04/14 02:44:33;;;;;;;13.73;8.97;;;8.20;99.90;;;;;;5053622;28;20554;-78
2023/04/14 02:47:06;;;;;;;13.20;8.63;;;8.20;99.90;;;;;;5051998;28;20588;-78
2023/04/14 02:49:36;;;;;;;14.40;9.57;;;8.20;99.90;;;;;;5053035;28;20230;-77
2023/04/14 02:52:06;;;;;;;14.07;9.07;;;8.10;99.90;;;;;;5035410;28;20226;-79
2023/04/14 02:54:35;;;;;;;15.70;8.67;;;8.10;99.90;;;;;;5051777;28;20668;-76
2023/04/14 02:57:03;;;;;;;13.60;9.07;;;8.10;99.90;;;;;;5051337;28;20671;-77
2023/04/14 02:59:34;;;;;;;12.93;8.93;;;8.10;99.90;;;;;;5051703;28;20198;-77
2023/04/14 03:02:03;;;;;;;15.90;9.13;;;8.10;99.90;;;;;;5051567;28;20195;-77
2023/04/14 03:04:33;;;;;;;14.77;8.97;;;8.00;99.90;;;;;;5053173;28;20195;-76
2023/04/14 03:07:02;;;;;;;15.87;8.77;;;8.00;99.90;;;;;;5051462;28;20187;-77
2023/04/14 03:09:31;;;;;;;12.83;8.70;;;8.00;99.90;;;;;;5052553;28;20256;-77
2023/04/14 03:12:01;;;;;;;15.93;9.53;;;7.90;99.90;;;;;;5052003;28;20633;-78
2023/04/14 03:14:32;;;;;;;13.63;9.43;;;7.90;99.90;;;;;;5035795;28;20230;-78
2023/04/14 03:16:59;;;;;;;13.93;8.77;;;7.90;99.90;;;;;;5051604;28;20233;-77
2023/04/14 03:19:28;;;;;;;14.33;8.97;;;7.90;99.90;;;;;;5051192;28;20252;-77
2023/04/14 03:21:58;;;;;;;29.67;11.03;;;7.80;99.90;;;;;;5053147;28;20282;-78
2023/04/14 03:24:29;;;;;;;16.43;9.50;;;7.80;99.90;;;;;;5052330;28;20245;-79
2023/04/14 03:27:03;;;;;;;16.43;9.23;;;7.80;99.90;;;;;;5051200;28;20219;-81
2023/04/14 03:29:36;;;;;;;15.27;9.57;;;7.80;99.90;;;;;;5052024;28;20679;-81
2023/04/14 03:32:07;;;;;;;17.30;9.90;;;7.80;99.90;;;;;;5051245;28;20296;-79
2023/04/14 03:34:39;;;;;;;13.97;9.13;;;7.80;99.90;;;;;;5052811;28;20237;-79
2023/04/14 03:37:07;;;;;;;14.23;9.60;;;7.80;99.90;;;;;;5052677;28;20203;-80
2023/04/14 03:39:37;;;;;;;14.43;9.57;;;7.80;99.90;;;;;;5051070;28;20720;-79
2023/04/14 03:42:15;;;;;;;17.90;11.23;;;7.80;99.90;;;;;;5052901;28;20248;-80
2023/04/14 03:44:48;;;;;;;19.10;12.07;;;7.80;99.90;;;;;;5050830;28;20198;-79
2023/04/14 03:47:18;;;;;;;20.37;12.30;;;7.80;99.90;;;;;;5050867;28;20680;-80
2023/04/14 03:49:48;;;;;;;20.77;13.30;;;7.70;99.90;;;;;;5052258;28;20195;-80
2023/04/14 03:52:19;;;;;;;23.70;14.30;;;7.80;99.90;;;;;;5051064;28;20233;-80
2023/04/14 03:54:50;;;;;;;26.40;16.23;;;7.80;99.90;;;;;;5050739;28;20198;-80
2023/04/14 03:57:22;;;;;;;29.67;16.67;;;7.80;99.90;;;;;;5049994;28;20210;-78
2023/04/14 03:59:50;;;;;;;26.67;16.80;;;7.70;99.90;;;;;;5050829;28;20187;-79
2023/04/14 04:02:18;;;;;;;28.80;19.10;;;7.70;99.90;;;;;;5034321;28;20191;-79
2023/04/14 04:04:46;;;;;;;30.23;18.80;;;7.70;99.90;;;;;;5050371;28;20234;-79
2023/04/14 04:07:14;;;;;;;29.40;18.90;;;7.80;99.90;;;;;;5050409;28;20209;-78
2023/04/14 04:09:42;;;;;;;30.10;18.37;;;7.90;99.90;;;;;;5033732;28;20202;-79
2023/04/14 04:12:12;;;;;;;27.40;16.97;;;7.90;99.90;;;;;;5050331;28;20229;-79
2023/04/14 04:14:41;;;;;;;26.47;16.50;;;8.00;99.90;;;;;;5050315;28;20554;-79
2023/04/14 04:17:11;;;;;;;25.63;15.47;;;8.00;99.90;;;;;;5050554;28;20191;-79
2023/04/14 04:19:39;;;;;;;24.87;15.10;;;8.00;99.90;;;;;;5051255;28;20632;-79
2023/04/14 04:22:09;;;;;;;22.73;14.60;;;8.10;99.90;;;;;;5051584;28;20277;-79
2023/04/14 04:24:39;;;;;;;25.73;14.37;;;8.10;99.90;;;;;;5052010;28;20187;-80
2023/04/14 04:27:07;;;;;;;21.67;13.87;;;8.20;99.90;;;;;;5051776;28;20687;-82
2023/04/14 04:29:51;;;;;;;23.23;13.80;;;8.20;99.90;;;;;;5053743;28;20244;-80
2023/04/14 04:32:18;;;;;;;25.30;14.07;;;8.20;99.90;;;;;;5072170;28;20225;-83
2023/04/14 04:34:47;;;;;;;25.53;13.80;;;8.20;99.90;;;;;;5053855;28;20639;-83
2023/04/14 04:37:18;;;;;;;23.97;14.47;;;8.30;99.90;;;;;;5072470;28;20182;-82
2023/04/14 04:39:47;;;;;;;23.53;13.70;;;8.30;99.90;;;;;;5053954;28;20212;-80
2023/04/14 04:42:15;;;;;;;26.43;15.17;;;8.30;99.90;;;;;;5054037;28;20659;-81
2023/04/14 04:44:42;;;;;;;26.90;15.47;;;8.40;99.90;;;;;;5053825;28;20197;-81
2023/04/14 04:47:10;;;;;;;24.27;14.23;;;8.50;99.90;;;;;;5053861;28;20210;-81
2023/04/14 04:49:38;;;;;;;25.70;14.07;;;8.40;99.90;;;;;;5071780;28;20182;-80
2023/04/14 04:52:05;;;;;;;29.63;15.47;;;8.50;99.90;;;;;;5071479;28;20223;-79
2023/04/14 04:54:32;;;;;;;24.67;14.87;;;8.50;99.90;;;;;;5053676;28;20659;-77
2023/04/14 04:57:05;;;;;;;28.53;15.07;;;8.60;99.90;;;;;;5052897;28;20210;-78
2023/04/14 04:59:36;;;;;;;27.17;14.90;;;8.60;99.90;;;;;;5071916;28;20190;-78
2023/04/14 05:02:04;;;;;;;29.50;15.63;;;8.60;99.90;;;;;;5071334;28;20194;-80
2023/04/14 05:04:31;;;;;;;29.63;16.33;;;8.70;99.90;;;;;;5071401;28;20269;-80
2023/04/14 05:06:58;;;;;;;23.40;14.87;;;8.70;99.90;;;;;;5053386;28;20214;-79
2023/04/14 05:09:24;;;;;;;26.63;15.20;;;8.70;99.90;;;;;;5070908;28;20200;-79
2023/04/14 05:11:51;;;;;;;26.40;15.57;;;8.80;99.90;;;;;;5053321;28;20233;-80
2023/04/14 05:14:18;;;;;;;26.10;15.23;;;8.80;99.90;;;;;;5053724;28;20198;-82
2023/04/14 05:16:46;;;;;;;26.03;15.20;;;8.90;99.90;;;;;;5071699;28;20631;-78
2023/04/14 05:19:12;;;;;;;25.23;15.13;;;8.90;99.90;;;;;;5071306;28;20194;-79
2023/04/14 05:21:39;;;;;;;26.73;17.03;;;8.90;99.90;;;;;;5053703;28;20205;-78
2023/04/14 05:24:08;;;;;;;25.20;15.50;;;9.00;99.90;;;;;;5071922;28;20186;-81
2023/04/14 05:26:35;;;;;;;24.93;15.37;;;9.00;99.90;;;;;;5053282;28;20228;-80
2023/04/14 05:29:21;;;;;;;25.37;15.30;;;9.00;99.90;;;;;;5049528;28;20652;-75
2023/04/14 05:31:48;;;;;;;24.80;15.30;;;9.10;99.90;;;;;;5049446;28;20671;-76
2023/04/14 05:34:15;;;;;;;26.40;15.50;;;9.10;99.90;;;;;;5049932;28;20195;-75
2023/04/14 05:36:42;;;;;;;25.30;15.27;;;9.20;99.90;;;;;;5052027;28;20191;-77
2023/04/14 05:39:09;;;;;;;26.47;16.30;;;9.20;99.90;;;;;;5052746;28;20209;-77
2023/04/14 05:41:36;;;;;;;27.80;15.23;;;9.30;99.90;;;;;;5054247;28;20648;-76
2023/04/14 05:44:03;;;;;;;28.70;16.07;;;9.30;99.90;;;;;;5052893;28;20210;-77
2023/04/14 05:46:30;;;;;;;24.67;15.30;;;9.40;99.90;;;;;;5053097;28;20609;-76
2023/04/14 05:48:57;;;;;;;26.03;16.00;;;9.50;99.90;;;;;;5052806;28;20198;-76
2023/04/14 05:51:26;;;;;;;26.17;15.40;;;9.60;99.90;;;;;;5053021;28;20218;-76
2023/04/14 05:53:54;;;;;;;24.13;15.03;;;9.60;99.90;;;;;;5052523;28;20660;-77
2023/04/14 05:56:22;;;;;;;25.73;16.00;;;9.70;99.90;;;;;;5052799;28;20199;-78
2023/04/14 05:58:53;;;;;;;25.60;15.67;;;9.90;99.90;;;;;;5052861;28;20249;-77
2023/04/14 06:01:19;;;;;;;26.87;15.83;;;9.80;99.90;;;;;;5052523;28;20202;-77
2023/04/14 06:03:46;;;;;;;26.07;15.80;;;10.00;99.90;;;;;;5052998;28;20600;-78
2023/04/14 06:06:14;;;;;;;24.40;15.37;;;10.10;99.90;;;;;;5052264;28;20199;-78
2023/04/14 06:08:40;;;;;;;22.37;14.97;;;10.20;99.90;;;;;;5052781;28;20679;-77
2023/04/14 06:11:07;;;;;;;24.77;15.07;;;10.30;99.90;;;;;;5052696;28;20234;-77
2023/04/14 06:13:34;;;;;;;21.53;14.43;;;10.40;99.90;;;;;;5052786;28;20199;-77
2023/04/14 06:16:04;;;;;;;22.67;13.80;;;10.40;99.90;;;;;;5052269;28;20302;-77
2023/04/14 06:18:31;;;;;;;21.23;13.60;;;10.50;99.90;;;;;;5051752;28;20734;-75
2023/04/14 06:20:58;;;;;;;23.13;13.80;;;10.50;99.90;;;;;;5052455;28;20652;-76
2023/04/14 06:23:30;;;;;;;25.77;13.80;;;10.60;99.90;;;;;;5036433;28;20272;-76
2023/04/14 06:25:57;;;;;;;21.77;12.97;;;10.70;99.90;;;;;;5052124;28;20203;-76
2023/04/14 06:28:25;;;;;;;19.17;12.97;;;10.70;99.90;;;;;;5063934;28;20230;-76
2023/04/14 06:30:52;;;;;;;20.67;13.03;;;10.80;99.90;;;;;;5039073;28;20219;-78
2023/04/14 06:33:19;;;;;;;19.50;12.27;;;10.90;99.90;;;;;;5073628;28;20205;-76
2023/04/14 06:35:45;;;;;;;19.60;12.53;;;10.90;99.90;;;;;;5055297;28;20625;-76
2023/04/14 06:38:13;;;;;;;20.70;12.53;;;11.00;99.90;;;;;;5055144;28;20225;-75
2023/04/14 06:40:41;;;;;;;20.03;12.67;;;11.10;99.90;;;;;;5055005;28;20566;-75
2023/04/14 06:43:13;;;;;;;20.53;13.07;;;11.10;99.90;;;;;;5073735;28;20190;-76
2023/04/14 06:45:39;;;;;;;18.87;12.37;;;11.20;99.90;;;;;;5055523;28;20208;-79
2023/04/14 06:48:06;;;;;;;23.07;11.93;;;11.30;99.90;;;;;;5055154;28;20597;-75
2023/04/14 06:50:33;;;;;;;17.77;11.77;;;11.30;99.90;;;;;;5055018;28;20192;-77
2023/04/14 06:53:00;;;;;;;16.00;10.93;;;11.30;99.90;;;;;;5055384;28;20226;-75
2023/04/14 06:55:27;;;;;;;22.13;11.60;;;11.40;99.90;;;;;;5048672;28;21577;-77
2023/04/14 06:57:54;;;;;;;16.17;10.73;;;11.50;99.90;;;;;;5052279;28;20201;-76
2023/04/14 07:00:21;;;;;;;15.87;10.70;;;11.50;99.90;;;;;;5051860;28;20186;-76
2023/04/14 07:02:48;;;;;;;16.27;10.87;;;11.40;99.90;;;;;;5070829;28;20584;-76
2023/04/14 07:05:16;;;;;;;18.27;10.80;;;11.50;99.90;;;;;;5072514;28;20194;-76
2023/04/14 07:07:43;;;;;;;15.77;10.83;;;11.50;99.90;;;;;;5054452;28;20259;-76
2023/04/14 07:10:10;;;;;;;18.70;9.87;;;11.60;99.90;;;;;;5054281;28;20187;-77
2023/04/14 07:12:36;;;;;;;17.57;10.23;;;11.70;99.90;;;;;;5054081;28;20575;-75
2023/04/14 07:15:04;;;;;;;16.47;10.47;;;11.70;99.90;;;;;;5055009;28;20597;-77
2023/04/14 07:17:31;;;;;;;15.07;10.37;;;11.70;99.90;;;;;;5059692;28;20205;-75
2023/04/14 07:19:58;;;;;;;14.23;9.77;;;11.80;99.90;;;;;;5051403;28;20194;-75
2023/04/14 07:22:25;;;;;;;17.10;10.17;;;11.80;99.90;;;;;;5054519;28;20678;-76
2023/04/14 07:24:52;;;;;;;14.27;9.37;;;11.90;99.90;;;;;;5054143;28;20635;-77
2023/04/14 07:27:25;;;;;;;14.60;9.83;;;12.10;99.90;;;;;;4989259;28;20666;-78
2023/04/14 07:29:53;;;;;;;13.80;9.43;;;12.20;99.90;;;;;;4970633;28;20296;-77
2023/04/14 07:32:20;;;;;;;17.50;10.20;;;12.30;99.90;;;;;;4974208;28;20713;-76
2023/04/14 07:34:47;;;;;;;13.83;8.97;;;12.50;99.90;;;;;;4974339;28;20216;-77
2023/04/14 07:37:15;;;;;;;15.83;10.03;;;12.50;99.90;;;;;;4974253;28;20201;-79
2023/04/14 07:39:42;;;;;;;13.73;8.90;;;12.60;99.90;;;;;;4974439;28;20279;-77
2023/04/14 07:42:13;;;;;;;13.17;8.93;;;12.80;99.90;;;;;;4974399;28;20292;-77
2023/04/14 07:44:41;;;;;;;12.97;9.23;;;12.90;99.90;;;;;;4988098;28;20650;-77
2023/04/14 07:47:08;;;;;;;14.33;9.73;;;13.00;99.90;;;;;;5072305;28;20197;-75
2023/04/14 07:49:35;;;;;;;12.73;8.80;;;13.10;99.90;;;;;;5054314;28;20653;-76
2023/04/14 07:52:02;;;;;;;12.70;8.60;;;13.20;99.90;;;;;;5053783;28;20300;-77
2023/04/14 07:54:30;;;;;;;13.67;8.13;;;13.30;99.90;;;;;;5053978;28;20562;-76
2023/04/14 07:56:57;;;;;;;17.97;8.80;;;13.40;99.90;;;;;;5053487;28;20221;-75
2023/04/14 07:59:24;;;;;;;12.77;8.60;;;13.50;99.90;;;;;;5053308;28;20197;-76
2023/04/14 08:01:50;;;;;;;16.37;8.87;;;13.60;99.90;;;;;;5054355;28;20671;-76
2023/04/14 08:04:17;;;;;;;12.93;8.70;;;13.70;99.90;;;;;;5053735;28;20607;-76
2023/04/14 08:06:45;;;;;;;10.93;8.03;;;13.80;99.90;;;;;;5053637;28;20201;-77
2023/04/14 08:09:11;;;;;;;12.00;8.37;;;14.00;99.90;;;;;;5053594;28;20209;-77
2023/04/14 08:11:38;;;;;;;11.87;7.40;;;14.40;99.90;;;;;;5071627;28;20225;-77
2023/04/14 08:14:06;;;;;;;11.37;7.23;;;14.80;99.90;;;;;;5071970;28;20217;-76
2023/04/14 08:16:35;;;;;;;10.50;7.50;;;15.30;99.90;;;;;;5053792;28;20194;-78
2023/04/14 08:19:03;;;;;;;9.17;6.60;;;15.60;99.90;;;;;;5053659;28;20197;-77
2023/04/14 08:21:31;;;;;;;10.20;6.80;;;16.10;99.90;;;;;;5053547;28;20202;-75
2023/04/14 08:23:59;;;;;;;9.53;6.90;;;16.40;99.90;;;;;;5053660;28;20563;-76
2023/04/14 08:26:26;;;;;;;8.47;6.57;;;17.00;99.90;;;;;;5053383;28;20257;-77
2023/04/14 08:28:53;;;;;;;9.93;6.23;;;17.50;99.90;;;;;;5053612;28;20226;-77
2023/04/14 08:31:23;;;;;;;9.43;6.20;;;17.80;99.90;;;;;;5053418;28;20198;-75
2023/04/14 08:33:51;;;;;;;9.23;6.00;;;18.10;99.90;;;;;;5053942;28;20206;-75
2023/04/14 08:36:19;;;;;;;6.83;5.60;;;18.40;99.90;;;;;;5071606;28;20201;-76
2023/04/14 08:38:46;;;;;;;7.43;5.70;;;18.40;99.90;;;;;;5053137;28;20644;-75
2023/04/14 08:41:14;;;;;;;11.07;5.33;;;18.50;99.90;;;;;;5053176;28;20237;-75
2023/04/14 08:43:41;;;;;;;8.20;5.37;;;18.70;99.90;;;;;;5052878;28;20662;-75
2023/04/14 08:46:12;;;;;;;7.60;5.40;;;18.70;99.90;;;;;;5053228;28;20195;-75
2023/04/14 08:48:40;;;;;;;8.47;5.30;;;18.80;99.90;;;;;;5053314;28;20201;-75
2023/04/14 08:51:30;;;;;;;8.83;4.80;;;19.00;99.90;;;;;;5053593;28;20217;-76
2023/04/14 08:53:59;;;;;;;8.40;5.40;;;19.00;99.90;;;;;;5053443;28;20220;-76
2023/04/14 08:56:32;;;;;;;6.63;5.30;;;19.40;99.90;;;;;;5070865;28;20198;-75
2023/04/14 08:59:00;;;;;;;5.77;4.77;;;19.40;99.90;;;;;;5071637;28;20647;-76
2023/04/14 09:01:28;;;;;;;8.63;4.60;;;19.20;99.90;;;;;;5071273;28;20627;-77
2023/04/14 09:03:56;;;;;;;6.73;5.03;;;19.10;99.90;;;;;;5071059;28;20202;-76
2023/04/14 09:06:24;;;;;;;6.90;4.70;;;19.00;99.90;;;;;;5052922;28;20549;-76
2023/04/14 09:08:51;;;;;;;10.77;5.60;;;19.00;99.90;;;;;;5053060;28;20216;-75
2023/04/14 09:11:18;;;;;;;7.60;4.70;;;18.80;99.90;;;;;;5055421;28;20201;-77
2023/04/14 09:13:47;;;;;;;8.03;5.13;;;18.90;99.90;;;;;;5056844;28;20222;-77
2023/04/14 09:16:16;;;;;;;6.33;4.70;;;18.80;99.90;;;;;;5056909;28;20570;-76
2023/04/14 09:18:43;;;;;;;6.97;5.00;;;18.50;99.90;;;;;;5056466;28;20209;-75
2023/04/14 09:21:16;;;;;;;5.43;4.33;;;18.40;99.90;;;;;;5074771;28;20190;-75
2023/04/14 09:24:07;;;;;;;6.63;4.70;;;18.60;99.90;;;;;;5060601;28;20218;-75
2023/04/14 09:26:38;;;;;;;6.27;4.53;;;19.20;99.90;;;;;;5074603;28;20670;-75
2023/04/14 09:29:04;;;;;;;6.73;4.90;;;19.30;99.90;;;;;;5056449;28;20626;-75
2023/04/14 09:31:32;;;;;;;6.83;4.80;;;19.40;99.90;;;;;;5057048;28;20210;-73
2023/04/14 09:34:00;;;;;;;8.10;4.83;;;19.80;99.90;;;;;;5074419;28;20265;-76
2023/04/14 09:36:28;;;;;;;6.60;5.03;;;20.00;99.90;;;;;;5074421;28;20594;-76
2023/04/14 09:38:56;;;;;;;6.57;4.63;;;20.20;99.90;;;;;;5056438;28;20288;-76
2023/04/14 09:41:24;;;;;;;5.97;4.70;;;20.30;99.90;;;;;;5056474;28;20200;-76
2023/04/14 09:43:51;;;;;;;8.73;5.25;;;20.60;99.90;;;;;;5056114;28;20186;-76
2023/04/14 09:46:19;;;;;;;10.47;5.23;;;20.60;99.90;;;;;;5056110;28;20205;-76
2023/04/14 09:48:54;;;;;;;7.13;5.40;;;20.50;99.90;;;;;;5074659;28;20252;-76
2023/04/14 09:51:28;;;;;;;8.03;5.03;;;20.50;99.90;;;;;;5074203;28;20560;-75
2023/04/14 09:54:02;;;;;;;7.30;5.30;;;20.30;99.90;;;;;;5074080;28;20217;-75
2023/04/14 09:56:29;;;;;;;12.77;5.23;;;20.20;99.90;;;;;;5055807;28;20229;-75
2023/04/14 09:59:00;;;;;;;6.80;4.93;;;20.50;99.90;;;;;;5073889;28;20194;-76
2023/04/14 10:01:31;;;;;;;7.73;5.20;;;20.80;99.90;;;;;;5056117;28;20202;-76
2023/04/14 10:04:00;;;;;;;7.82;5.55;;;21.00;99.90;;;;;;5055896;28;20206;-77
2023/04/14 10:06:27;;;;;;;8.40;5.07;;;21.20;99.90;;;;;;5056045;28;20198;-76
2023/04/14 10:08:54;;;;;;;10.40;5.07;;;21.20;99.90;;;;;;5055937;28;20194;-76
2023/04/14 10:11:24;;;;;;;6.23;5.00;;;21.20;99.90;;;;;;5055733;28;20202;-76
2023/04/14 10:13:56;;;;;;;7.15;5.20;;;21.20;99.90;;;;;;5055643;28;20325;-76
2023/04/14 10:16:24;;;;;;;7.00;5.03;;;21.50;99.90;;;;;;5055156;28;20202;-77
2023/04/14 10:18:52;;;;;;;6.50;4.80;;;22.00;99.90;;;;;;5055592;28;20202;-77
2023/04/14 10:21:24;;;;;;;9.40;5.40;;;22.30;99.90;;;;;;5055350;28;20208;-77
2023/04/14 10:24:00;;;;;;;10.85;5.95;;;22.50;99.90;;;;;;5055563;28;20193;-79
2023/04/14 10:26:28;;;;;;;8.93;5.07;;;22.60;99.90;;;;;;5055030;28;20308;-79
2023/04/14 10:28:56;;;;;;;6.03;4.90;;;22.50;99.90;;;;;;5073050;28;20218;-79
2023/04/14 10:31:37;;;;;;;8.35;4.88;;;22.30;99.90;;;;;;5073542;28;20699;-78
2023/04/14 10:34:13;;;;;;;5.83;4.90;;;21.80;99.90;;;;;;5055132;28;20233;-77
2023/04/14 10:36:42;;;;;;;6.78;5.00;;;21.20;99.90;;;;;;5054921;28;20224;-78
2023/04/14 10:39:11;;;;;;;7.23;5.10;;;20.90;99.90;;;;;;5055506;28;20202;-78
2023/04/14 10:41:48;;;;;;;7.23;4.77;;;20.70;99.90;;;;;;5055042;28;20194;-77
2023/04/14 10:44:27;;;;;;;6.07;4.70;;;20.70;99.90;;;;;;5073549;28;20573;-77
2023/04/14 10:46:55;;;;;;;8.00;4.50;;;20.70;99.90;;;;;;5054621;28;20205;-78
2023/04/14 10:49:40;;;;;;;5.55;4.10;;;20.90;99.90;;;;;;5073160;28;20206;-78
2023/04/14 10:52:16;;;;;;;5.77;4.30;;;21.40;99.90;;;;;;5055167;28;20186;-77
2023/04/14 10:55:01;;;;;;;10.87;4.67;;;21.40;99.90;;;;;;5054919;28;20194;-77
2023/04/14 10:57:29;;;;;;;8.15;4.60;;;21.20;99.90;;;;;;5072678;28;20201;-77
2023/04/14 11:00:00;;;;;;;7.97;4.90;;;21.50;99.90;;;;;;5073190;28;20178;-79
2023/04/14 11:02:33;;;;;;;12.60;5.10;;;21.10;99.90;;;;;;5054818;28;20194;-77
2023/04/14 11:05:10;;;;;;;6.90;4.53;;;21.00;99.90;;;;;;5054974;28;20235;-78
2023/04/14 11:07:44;;;;;;;8.90;4.83;;;20.80;99.90;;;;;;5054903;28;20557;-77
2023/04/14 11:10:23;;;;;;;7.77;4.50;;;20.90;99.90;;;;;;5054746;28;20198;-77
2023/04/14 11:13:05;;;;;;;5.53;4.40;;;21.30;99.90;;;;;;5072856;28;20232;-77
2023/04/14 11:15:57;;;;;;;7.57;4.30;;;21.70;99.90;;;;;;5054965;28;20639;-77
2023/04/14 11:18:30;;;;;;;6.33;4.23;;;21.80;99.90;;;;;;5054463;28;20194;-76
2023/04/14 11:21:09;;;;;;;6.40;4.77;;;22.20;99.90;;;;;;5072266;28;20186;-77
2023/04/14 11:23:37;;;;;;;9.17;4.70;;;22.30;99.90;;;;;;5072988;28;20198;-75
2023/04/14 11:26:08;;;;;;;6.50;4.83;;;22.10;99.90;;;;;;5053954;28;20200;-76
2023/04/14 11:28:41;;;;;;;5.68;4.20;;;21.90;99.90;;;;;;5072239;28;20329;-76
2023/04/14 11:31:10;;;;;;;6.90;4.35;;;22.50;99.90;;;;;;5072477;28;20269;-76
2023/04/14 11:33:40;;;;;;;7.00;4.60;;;23.00;99.80;;;;;;5053369;28;20217;-76
2023/04/14 11:36:12;;;;;;;5.88;4.68;;;23.40;97.40;;;;;;5054282;28;20198;-77
2023/04/14 11:38:41;;;;;;;5.72;4.25;;;23.40;95.30;;;;;;5072302;28;20598;-80
2023/04/14 11:41:09;;;;;;;8.07;4.05;;;23.30;95.50;;;;;;5054421;28;20194;-78
2023/04/14 11:43:45;;;;;;;5.63;4.32;;;23.60;95.50;;;;;;5072068;28;20549;-78
2023/04/14 11:46:20;;;;;;;6.82;4.70;;;23.90;94.30;;;;;;5055118;28;20626;-77
2023/04/14 11:48:53;;;;;;;5.97;4.43;;;24.10;92.10;;;;;;5072016;28;20269;-76
2023/04/14 11:51:26;;;;;;;4.97;3.90;;;24.30;91.50;;;;;;5053694;28;20289;-76
2023/04/14 11:53:54;;;;;;;5.00;3.92;;;24.30;90.30;;;;;;5053721;28;20260;-77
2023/04/14 11:56:21;;;;;;;4.60;3.90;;;24.80;88.40;;;;;;5054199;28;20194;-76
2023/04/14 11:58:49;;;;;;;8.27;3.78;;;25.00;87.00;;;;;;5053959;28;20190;-77
2023/04/14 12:01:22;;;;;;;6.35;3.60;;;25.20;85.00;;;;;;5072144;28;20244;-76
2023/04/14 12:03:52;;;;;;;8.45;3.95;;;25.70;83.20;;;;;;5071870;28;20277;-77
2023/04/14 12:06:23;;;;;;;5.38;3.15;;;26.00;79.60;;;;;;5053876;28;20285;-77
2023/04/14 12:08:51;;;;;;;3.58;2.97;;;26.30;77.30;;;;;;5053817;28;20190;-77
2023/04/14 12:11:18;;;;;;;4.70;3.58;;;26.00;74.80;;;;;;5053807;28;20252;-77
2023/04/14 12:13:51;;;;;;;4.38;3.50;;;25.50;74.90;;;;;;5053515;28;20635;-77
2023/04/14 12:16:18;;;;;;;4.57;3.35;;;25.50;77.30;;;;;;5053757;28;20205;-77
2023/04/14 12:18:45;;;;;;;3.58;2.90;;;25.60;76.60;;;;;;5071886;28;20586;-77
2023/04/14 12:21:18;;;;;;;3.55;2.90;;;25.00;76.20;;;;;;5054196;28;20190;-77
2023/04/14 12:23:47;;;;;;;3.60;3.08;;;24.20;78.00;;;;;;5053616;28;20202;-78
2023/04/14 12:26:24;;;;;;;6.00;3.28;;;24.20;80.20;;;;;;5036746;28;20206;-78
2023/04/14 12:28:56;;;;;;;2.83;2.40;;;24.30;79.10;;;;;;5049725;28;20238;-77
2023/04/14 12:31:30;;;;;;;3.22;2.83;;;24.20;79.60;;;;;;5033968;28;20264;-78
2023/04/14 12:34:02;;;;;;;4.22;2.92;;;24.00;78.50;;;;;;5051372;28;20578;-78
2023/04/14 12:36:30;;;;;;;5.47;3.10;;;23.70;81.00;;;;;;5049884;28;20248;-78
2023/04/14 12:39:15;;;;;;;3.17;2.55;;;23.50;82.60;;;;;;5049980;28;20259;-77
2023/04/14 12:41:42;;;;;;;3.88;2.50;;;23.30;82.00;;;;;;5049931;28;20534;-75
2023/04/14 12:44:18;;;;;;;4.32;2.60;;;23.10;82.80;;;;;;5057713;22;20655;-77
2023/04/14 12:46:51;;;;;;;3.50;2.67;;;22.80;82.20;;;;;;5054103;28;20753;-76
2023/04/14 12:49:35;;;;;;;2.90;2.40;;;22.80;85.80;;;;;;5055596;28;20229;-76
2023/04/14 12:52:06;;;;;;;5.70;2.70;;;23.00;84.20;;;;;;5053979;28;20217;-77
2023/04/14 12:54:47;;;;;;;3.13;2.58;;;22.60;84.70;;;;;;5070619;28;20214;-77
2023/04/14 12:57:14;;;;;;;2.97;2.35;;;22.30;87.10;;;;;;5070335;28;20281;-78